AFR1229 LIPE-LFPG
Flight info
| Callsign | AFR1229 |
|---|---|
| Flight time | 1h 23m |
| Altitude | 32000 |
| Route | LUPOS DCT EVKIV DCT EKPAL DCT SRN DCT CERVI DCT MOLUS DCT UNKIR DCT GIVRI DCT TINIL |
| Aircraft | A320/M-SDE3FGHIRWY/LB1 |
Departure
| Time | 2026-04-30 12:19 |
|---|---|
| Airport | Bologna Guglielmo Marconi Airport (LIPE) |
Arrival
| Time | 2026-04-30 13:43 |
|---|---|
| Airport | Charles de Gaulle International Airport (LFPG) |
| Time | Latitude | Longitude | Altitude | Speed | Heading |
|---|---|---|---|---|---|
| 2026-04-30 11:48 | 44.53338 | 11.28574 | 120 ft | 0 kts | 207° |
| 2026-04-30 12:09 | 44.53349 | 11.28582 | 120 ft | 2 kts | 207° |
| 2026-04-30 12:09 | 44.53362 | 11.28592 | 120 ft | 2 kts | 207° |
| 2026-04-30 12:09 | 44.53376 | 11.28602 | 120 ft | 2 kts | 231° |
| 2026-04-30 12:10 | 44.53382 | 11.28622 | 120 ft | 2 kts | 270° |
| 2026-04-30 12:10 | 44.53380 | 11.28635 | 120 ft | 0 kts | 294° |
| 2026-04-30 12:10 | 44.53376 | 11.28644 | 120 ft | 0 kts | 297° |
| 2026-04-30 12:13 | 44.53386 | 11.28620 | 120 ft | 5 kts | 298° |
| 2026-04-30 12:13 | 44.53424 | 11.28597 | 119 ft | 7 kts | 346° |
| 2026-04-30 12:13 | 44.53467 | 11.28534 | 118 ft | 11 kts | 296° |
| 2026-04-30 12:13 | 44.53508 | 11.28421 | 117 ft | 14 kts | 297° |
| 2026-04-30 12:14 | 44.53553 | 11.28291 | 117 ft | 15 kts | 296° |
| 2026-04-30 12:14 | 44.53605 | 11.28155 | 117 ft | 15 kts | 295° |
| 2026-04-30 12:14 | 44.53654 | 11.28015 | 117 ft | 16 kts | 296° |
| 2026-04-30 12:14 | 44.53704 | 11.27879 | 120 ft | 15 kts | 294° |
| 2026-04-30 12:15 | 44.53743 | 11.27756 | 120 ft | 13 kts | 296° |
| 2026-04-30 12:15 | 44.53786 | 11.27637 | 121 ft | 13 kts | 297° |
| 2026-04-30 12:15 | 44.53859 | 11.27576 | 121 ft | 8 kts | 349° |
| 2026-04-30 12:15 | 44.53900 | 11.27577 | 121 ft | 0 kts | 20° |
| 2026-04-30 12:17 | 44.53904 | 11.27579 | 120 ft | 1 kts | 20° |
| 2026-04-30 12:17 | 44.53926 | 11.27599 | 120 ft | 5 kts | 40° |
| 2026-04-30 12:17 | 44.53952 | 11.27644 | 120 ft | 6 kts | 60° |
| 2026-04-30 12:18 | 44.53960 | 11.27710 | 120 ft | 7 kts | 108° |
| 2026-04-30 12:18 | 44.53947 | 11.27747 | 120 ft | 0 kts | 117° |
| 2026-04-30 12:19 | 44.53859 | 11.27998 | 117 ft | 64 kts | 117° |
| 2026-04-30 12:19 | 44.53563 | 11.28873 | 120 ft | 134 kts | 117° |
| 2026-04-30 12:19 | 44.53083 | 11.30224 | 487 ft | 163 kts | 115° |
| 2026-04-30 12:19 | 44.52623 | 11.31648 | 1240 ft | 165 kts | 102° |
| 2026-04-30 12:20 | 44.52593 | 11.33203 | 2159 ft | 161 kts | 75° |
| 2026-04-30 12:20 | 44.53117 | 11.34522 | 2935 ft | 169 kts | 44° |
| 2026-04-30 12:20 | 44.54222 | 11.35313 | 3578 ft | 189 kts | 24° |
| 2026-04-30 12:20 | 44.55521 | 11.35942 | 4218 ft | 209 kts | 22° |
| 2026-04-30 12:21 | 44.56988 | 11.36601 | 4876 ft | 234 kts | 14° |
| 2026-04-30 12:21 | 44.58667 | 11.36523 | 5582 ft | 254 kts | 346° |
| 2026-04-30 12:21 | 44.60220 | 11.35236 | 6190 ft | 273 kts | 317° |
| 2026-04-30 12:21 | 44.61261 | 11.33005 | 6964 ft | 281 kts | 298° |
| 2026-04-30 12:22 | 44.61901 | 11.30397 | 7744 ft | 288 kts | 279° |
| 2026-04-30 12:22 | 44.61764 | 11.27592 | 8521 ft | 294 kts | 259° |
| 2026-04-30 12:22 | 44.61315 | 11.24824 | 9310 ft | 296 kts | 258° |
| 2026-04-30 12:22 | 44.60857 | 11.21986 | 10085 ft | 298 kts | 259° |
| 2026-04-30 12:23 | 44.60401 | 11.19154 | 10785 ft | 303 kts | 259° |
| 2026-04-30 12:23 | 44.59931 | 11.16213 | 11172 ft | 319 kts | 259° |
| 2026-04-30 12:23 | 44.59430 | 11.13073 | 11478 ft | 336 kts | 259° |
| 2026-04-30 12:23 | 44.58910 | 11.09833 | 11840 ft | 350 kts | 259° |
| 2026-04-30 12:24 | 44.58369 | 11.06482 | 12464 ft | 355 kts | 259° |
| 2026-04-30 12:24 | 44.57822 | 11.03112 | 13138 ft | 357 kts | 259° |
| 2026-04-30 12:24 | 44.57272 | 10.99718 | 13800 ft | 360 kts | 260° |
| 2026-04-30 12:24 | 44.56716 | 10.96296 | 14439 ft | 362 kts | 260° |
| 2026-04-30 12:25 | 44.56157 | 10.92848 | 15059 ft | 365 kts | 260° |
| 2026-04-30 12:25 | 44.55597 | 10.89402 | 15668 ft | 367 kts | 260° |
| 2026-04-30 12:25 | 44.55031 | 10.85927 | 16245 ft | 369 kts | 260° |
| 2026-04-30 12:25 | 44.54456 | 10.82400 | 16821 ft | 372 kts | 260° |
| 2026-04-30 12:26 | 44.53879 | 10.78875 | 17379 ft | 374 kts | 260° |
| 2026-04-30 12:26 | 44.53299 | 10.75335 | 17910 ft | 377 kts | 261° |
| 2026-04-30 12:26 | 44.52710 | 10.71747 | 18432 ft | 379 kts | 261° |
| 2026-04-30 12:26 | 44.52114 | 10.68133 | 18953 ft | 382 kts | 261° |
| 2026-04-30 12:27 | 44.51522 | 10.64542 | 19450 ft | 385 kts | 261° |
| 2026-04-30 12:27 | 44.50936 | 10.60839 | 19950 ft | 386 kts | 263° |
| 2026-04-30 12:27 | 44.50499 | 10.57143 | 20444 ft | 387 kts | 266° |
| 2026-04-30 12:27 | 44.50225 | 10.53397 | 20899 ft | 388 kts | 270° |
| 2026-04-30 12:28 | 44.50039 | 10.49633 | 21379 ft | 390 kts | 270° |
| 2026-04-30 12:28 | 44.49863 | 10.45870 | 21828 ft | 392 kts | 270° |
| 2026-04-30 12:28 | 44.49682 | 10.42065 | 22267 ft | 394 kts | 270° |
| 2026-04-30 12:28 | 44.49497 | 10.38224 | 22705 ft | 397 kts | 270° |
| 2026-04-30 12:29 | 44.49308 | 10.34385 | 23082 ft | 400 kts | 270° |
| 2026-04-30 12:29 | 44.49112 | 10.30448 | 23467 ft | 403 kts | 270° |
| 2026-04-30 12:29 | 44.48919 | 10.26533 | 23871 ft | 405 kts | 270° |
| 2026-04-30 12:29 | 44.48747 | 10.22618 | 24249 ft | 406 kts | 274° |
| 2026-04-30 12:30 | 44.49139 | 10.18761 | 24567 ft | 399 kts | 291° |
| 2026-04-30 12:30 | 44.50353 | 10.15339 | 24939 ft | 394 kts | 308° |
| 2026-04-30 12:30 | 44.52228 | 10.12591 | 25319 ft | 391 kts | 323° |
| 2026-04-30 12:30 | 44.54454 | 10.10411 | 25681 ft | 392 kts | 327° |
| 2026-04-30 12:31 | 44.56709 | 10.08261 | 25993 ft | 394 kts | 326° |
| 2026-04-30 12:31 | 44.58973 | 10.06097 | 26336 ft | 396 kts | 327° |
| 2026-04-30 12:31 | 44.61256 | 10.03907 | 26649 ft | 398 kts | 327° |
| 2026-04-30 12:31 | 44.63546 | 10.01708 | 26973 ft | 400 kts | 327° |
| 2026-04-30 12:32 | 44.65833 | 9.99503 | 27292 ft | 402 kts | 327° |
| 2026-04-30 12:32 | 44.68142 | 9.97276 | 27563 ft | 405 kts | 327° |
| 2026-04-30 12:32 | 44.70463 | 9.95036 | 27819 ft | 407 kts | 327° |
| 2026-04-30 12:32 | 44.72787 | 9.92792 | 28099 ft | 409 kts | 327° |
| 2026-04-30 12:33 | 44.75145 | 9.90510 | 28408 ft | 410 kts | 327° |
| 2026-04-30 12:33 | 44.77491 | 9.88236 | 28660 ft | 412 kts | 327° |
| 2026-04-30 12:33 | 44.79851 | 9.85946 | 28874 ft | 415 kts | 327° |
| 2026-04-30 12:33 | 44.82246 | 9.83621 | 29093 ft | 418 kts | 327° |
| 2026-04-30 12:34 | 44.84637 | 9.81298 | 29312 ft | 420 kts | 327° |
| 2026-04-30 12:34 | 44.87050 | 9.78951 | 29548 ft | 422 kts | 327° |
| 2026-04-30 12:34 | 44.89482 | 9.76581 | 29776 ft | 424 kts | 327° |
| 2026-04-30 12:34 | 44.91896 | 9.74227 | 29950 ft | 427 kts | 327° |
| 2026-04-30 12:35 | 44.94356 | 9.71827 | 30094 ft | 430 kts | 327° |
| 2026-04-30 12:35 | 44.96816 | 9.69425 | 30318 ft | 431 kts | 327° |
| 2026-04-30 12:35 | 44.99276 | 9.67020 | 30606 ft | 430 kts | 327° |
| 2026-04-30 12:35 | 45.01714 | 9.64633 | 30839 ft | 430 kts | 327° |
| 2026-04-30 12:36 | 45.04171 | 9.62227 | 31052 ft | 431 kts | 327° |
| 2026-04-30 12:36 | 45.06647 | 9.59799 | 31262 ft | 431 kts | 327° |
| 2026-04-30 12:36 | 45.09084 | 9.57404 | 31474 ft | 431 kts | 326° |
| 2026-04-30 12:36 | 45.11576 | 9.54951 | 31688 ft | 432 kts | 326° |
| 2026-04-30 12:37 | 45.14037 | 9.52527 | 31925 ft | 431 kts | 327° |
| 2026-04-30 12:37 | 45.16496 | 9.50101 | 32112 ft | 432 kts | 327° |
| 2026-04-30 12:37 | 45.18959 | 9.47670 | 32247 ft | 433 kts | 327° |
| 2026-04-30 12:37 | 45.21409 | 9.45252 | 32244 ft | 433 kts | 327° |
| 2026-04-30 12:38 | 45.26373 | 9.40341 | 32252 ft | 434 kts | 327° |
| 2026-04-30 12:38 | 45.31310 | 9.35449 | 32252 ft | 434 kts | 327° |
| 2026-04-30 12:39 | 45.36245 | 9.30538 | 32263 ft | 435 kts | 327° |
| 2026-04-30 12:39 | 45.41219 | 9.25589 | 32270 ft | 435 kts | 327° |
| 2026-04-30 12:40 | 45.46171 | 9.20650 | 32265 ft | 436 kts | 327° |
| 2026-04-30 12:40 | 45.51118 | 9.15701 | 32273 ft | 437 kts | 327° |
| 2026-04-30 12:41 | 45.56105 | 9.10701 | 32275 ft | 437 kts | 327° |
| 2026-04-30 12:41 | 45.60695 | 9.05061 | 32277 ft | 441 kts | 316° |
| 2026-04-30 12:42 | 45.64506 | 8.98076 | 32273 ft | 447 kts | 305° |
| 2026-04-30 12:42 | 45.67285 | 8.90108 | 32280 ft | 455 kts | 294° |
| 2026-04-30 12:43 | 45.69283 | 8.81541 | 32274 ft | 456 kts | 291° |
| 2026-04-30 12:43 | 45.71210 | 8.72859 | 32279 ft | 456 kts | 291° |
| 2026-04-30 12:44 | 45.73119 | 8.64275 | 32275 ft | 456 kts | 291° |
| 2026-04-30 12:44 | 45.75045 | 8.55620 | 32275 ft | 457 kts | 291° |
| 2026-04-30 12:45 | 45.76966 | 8.46966 | 32271 ft | 457 kts | 291° |
| 2026-04-30 12:45 | 45.78875 | 8.38337 | 32273 ft | 458 kts | 291° |
| 2026-04-30 12:46 | 45.80798 | 8.29602 | 32267 ft | 458 kts | 290° |
| 2026-04-30 12:46 | 45.82701 | 8.20926 | 32277 ft | 459 kts | 290° |
| 2026-04-30 12:47 | 45.84613 | 8.12166 | 32291 ft | 460 kts | 290° |
| 2026-04-30 12:47 | 45.86498 | 8.03498 | 32284 ft | 459 kts | 290° |
| 2026-04-30 12:48 | 45.88396 | 7.94742 | 32265 ft | 460 kts | 289° |
| 2026-04-30 12:48 | 45.90286 | 7.85985 | 32260 ft | 462 kts | 289° |
| 2026-04-30 12:49 | 45.92173 | 7.77194 | 32255 ft | 462 kts | 289° |
| 2026-04-30 12:49 | 45.94047 | 7.68426 | 32248 ft | 462 kts | 289° |
| 2026-04-30 12:50 | 45.96286 | 7.59790 | 32248 ft | 460 kts | 296° |
| 2026-04-30 12:50 | 45.99197 | 7.51652 | 32251 ft | 458 kts | 303° |
| 2026-04-30 12:51 | 46.02735 | 7.44113 | 32249 ft | 457 kts | 310° |
| 2026-04-30 12:51 | 46.06668 | 7.36960 | 32245 ft | 457 kts | 311° |
| 2026-04-30 12:52 | 46.10660 | 7.29773 | 32231 ft | 458 kts | 310° |
| 2026-04-30 12:52 | 46.14625 | 7.22593 | 32225 ft | 459 kts | 310° |
| 2026-04-30 12:53 | 46.18576 | 7.15407 | 32213 ft | 459 kts | 310° |
| 2026-04-30 12:53 | 46.22536 | 7.08181 | 32189 ft | 458 kts | 310° |
| 2026-04-30 12:54 | 46.26463 | 7.00995 | 32162 ft | 458 kts | 310° |
| 2026-04-30 12:54 | 46.30410 | 6.93756 | 32161 ft | 459 kts | 310° |
| 2026-04-30 12:55 | 46.34359 | 6.86492 | 32178 ft | 459 kts | 310° |
| 2026-04-30 12:55 | 46.38287 | 6.79248 | 32180 ft | 459 kts | 310° |
| 2026-04-30 12:56 | 46.42217 | 6.71973 | 32172 ft | 459 kts | 309° |
| 2026-04-30 12:56 | 46.45819 | 6.64326 | 32166 ft | 461 kts | 303° |
| 2026-04-30 12:57 | 46.49030 | 6.56294 | 32148 ft | 461 kts | 302° |
| 2026-04-30 12:57 | 46.52198 | 6.48234 | 32129 ft | 463 kts | 302° |
| 2026-04-30 12:58 | 46.55397 | 6.40088 | 32128 ft | 463 kts | 302° |
| 2026-04-30 12:58 | 46.58574 | 6.31990 | 32132 ft | 465 kts | 301° |
| 2026-04-30 12:59 | 46.61765 | 6.23835 | 32133 ft | 464 kts | 301° |
| 2026-04-30 12:59 | 46.64947 | 6.15678 | 32132 ft | 466 kts | 301° |
| 2026-04-30 13:00 | 46.68150 | 6.07447 | 32128 ft | 466 kts | 301° |
| 2026-04-30 13:00 | 46.71352 | 5.99192 | 32126 ft | 467 kts | 301° |
| 2026-04-30 13:01 | 46.74525 | 5.90982 | 32125 ft | 468 kts | 301° |
| 2026-04-30 13:01 | 46.77785 | 5.82761 | 32115 ft | 469 kts | 304° |
| 2026-04-30 13:02 | 46.81786 | 5.75312 | 32109 ft | 467 kts | 315° |
| 2026-04-30 13:02 | 46.86657 | 5.69024 | 32106 ft | 466 kts | 326° |
| 2026-04-30 13:03 | 46.92149 | 5.64066 | 32103 ft | 465 kts | 333° |
| 2026-04-30 13:03 | 46.97831 | 5.59549 | 32099 ft | 466 kts | 334° |
| 2026-04-30 13:04 | 47.03516 | 5.55014 | 32101 ft | 467 kts | 333° |
| 2026-04-30 13:04 | 47.09234 | 5.50413 | 32105 ft | 467 kts | 333° |
| 2026-04-30 13:05 | 47.14922 | 5.45816 | 32105 ft | 467 kts | 333° |
| 2026-04-30 13:06 | 47.23462 | 5.38891 | 32107 ft | 467 kts | 333° |
| 2026-04-30 13:06 | 47.29182 | 5.34237 | 32110 ft | 467 kts | 333° |
| 2026-04-30 13:07 | 47.34883 | 5.29583 | 32114 ft | 468 kts | 333° |
| 2026-04-30 13:07 | 47.40570 | 5.24931 | 32119 ft | 469 kts | 333° |
| 2026-04-30 13:08 | 47.46204 | 5.20310 | 31685 ft | 462 kts | 333° |
| 2026-04-30 13:08 | 47.48989 | 5.18021 | 30932 ft | 461 kts | 333° |
| 2026-04-30 13:08 | 47.51813 | 5.15698 | 30122 ft | 461 kts | 333° |
| 2026-04-30 13:08 | 47.54588 | 5.13408 | 29259 ft | 462 kts | 332° |
| 2026-04-30 13:09 | 47.57323 | 5.10955 | 28606 ft | 458 kts | 329° |
| 2026-04-30 13:09 | 47.59908 | 5.08329 | 28028 ft | 453 kts | 326° |
| 2026-04-30 13:09 | 47.62407 | 5.05465 | 27408 ft | 449 kts | 323° |
| 2026-04-30 13:09 | 47.64786 | 5.02521 | 26767 ft | 446 kts | 322° |
| 2026-04-30 13:10 | 47.67121 | 4.99577 | 26123 ft | 442 kts | 322° |
| 2026-04-30 13:10 | 47.69444 | 4.96640 | 25491 ft | 438 kts | 322° |
| 2026-04-30 13:10 | 47.71757 | 4.93721 | 24870 ft | 435 kts | 322° |
| 2026-04-30 13:10 | 47.74059 | 4.90820 | 24224 ft | 432 kts | 322° |
| 2026-04-30 13:11 | 47.76342 | 4.87931 | 23598 ft | 428 kts | 322° |
| 2026-04-30 13:11 | 47.78581 | 4.85091 | 23009 ft | 425 kts | 322° |
| 2026-04-30 13:11 | 47.80817 | 4.82255 | 22419 ft | 421 kts | 322° |
| 2026-04-30 13:11 | 47.83004 | 4.79480 | 21851 ft | 417 kts | 322° |
| 2026-04-30 13:12 | 47.85208 | 4.76677 | 21287 ft | 414 kts | 322° |
| 2026-04-30 13:12 | 47.87371 | 4.73923 | 20739 ft | 410 kts | 322° |
| 2026-04-30 13:12 | 47.89537 | 4.71163 | 20192 ft | 406 kts | 322° |
| 2026-04-30 13:13 | 47.93774 | 4.65752 | 19101 ft | 400 kts | 322° |
| 2026-04-30 13:13 | 47.95870 | 4.63073 | 18569 ft | 397 kts | 321° |
| 2026-04-30 13:13 | 47.99999 | 4.57784 | 17526 ft | 391 kts | 321° |
| 2026-04-30 13:14 | 48.02061 | 4.55136 | 17001 ft | 389 kts | 321° |
| 2026-04-30 13:14 | 48.04080 | 4.52452 | 16503 ft | 385 kts | 320° |
| 2026-04-30 13:14 | 48.07959 | 4.47042 | 15542 ft | 380 kts | 318° |
| 2026-04-30 13:15 | 48.09757 | 4.44184 | 15039 ft | 379 kts | 306° |
| 2026-04-30 13:15 | 48.12543 | 4.37611 | 14040 ft | 371 kts | 318° |
| 2026-04-30 13:15 | 48.14628 | 4.35472 | 13532 ft | 365 kts | 336° |
| 2026-04-30 13:16 | 48.16923 | 4.33862 | 13055 ft | 362 kts | 334° |
| 2026-04-30 13:16 | 48.19088 | 4.31964 | 12540 ft | 361 kts | 328° |
| 2026-04-30 13:16 | 48.21064 | 4.29658 | 12020 ft | 360 kts | 315° |
| 2026-04-30 13:17 | 48.24152 | 4.23773 | 12027 ft | 361 kts | 307° |
| 2026-04-30 13:17 | 48.25639 | 4.20759 | 12070 ft | 361 kts | 307° |
| 2026-04-30 13:17 | 48.28659 | 4.14758 | 12119 ft | 361 kts | 308° |
| 2026-04-30 13:18 | 48.30188 | 4.11765 | 12114 ft | 361 kts | 308° |
| 2026-04-30 13:18 | 48.33256 | 4.05796 | 12126 ft | 363 kts | 309° |
| 2026-04-30 13:18 | 48.34804 | 4.02793 | 12132 ft | 362 kts | 309° |
| 2026-04-30 13:19 | 48.36342 | 3.99805 | 12139 ft | 363 kts | 309° |
| 2026-04-30 13:19 | 48.37883 | 3.96813 | 12146 ft | 363 kts | 308° |
| 2026-04-30 13:19 | 48.39428 | 3.93809 | 12149 ft | 362 kts | 308° |
| 2026-04-30 13:19 | 48.40977 | 3.90794 | 12154 ft | 363 kts | 308° |
| 2026-04-30 13:20 | 48.42515 | 3.87796 | 12133 ft | 363 kts | 308° |
| 2026-04-30 13:20 | 48.44058 | 3.84784 | 12147 ft | 362 kts | 308° |
| 2026-04-30 13:20 | 48.45595 | 3.81781 | 12147 ft | 362 kts | 309° |
| 2026-04-30 13:20 | 48.47127 | 3.78785 | 12143 ft | 363 kts | 309° |
| 2026-04-30 13:21 | 48.48660 | 3.75786 | 12128 ft | 363 kts | 309° |
| 2026-04-30 13:21 | 48.50195 | 3.72779 | 12126 ft | 364 kts | 309° |
| 2026-04-30 13:21 | 48.51743 | 3.69745 | 12129 ft | 364 kts | 309° |
| 2026-04-30 13:22 | 48.54811 | 3.63717 | 12134 ft | 364 kts | 309° |
| 2026-04-30 13:22 | 48.56367 | 3.60655 | 12130 ft | 364 kts | 308° |
| 2026-04-30 13:22 | 48.59423 | 3.54628 | 12138 ft | 364 kts | 309° |
| 2026-04-30 13:23 | 48.60976 | 3.51565 | 12137 ft | 365 kts | 309° |
| 2026-04-30 13:23 | 48.64049 | 3.45486 | 12141 ft | 365 kts | 309° |
| 2026-04-30 13:24 | 48.67126 | 3.39386 | 12144 ft | 365 kts | 308° |
| 2026-04-30 13:24 | 48.70189 | 3.33301 | 12139 ft | 365 kts | 308° |
| 2026-04-30 13:25 | 48.73272 | 3.27163 | 12138 ft | 365 kts | 308° |
| 2026-04-30 13:25 | 48.76333 | 3.21055 | 12143 ft | 366 kts | 308° |
| 2026-04-30 13:26 | 48.80920 | 3.11870 | 12144 ft | 366 kts | 308° |
| 2026-04-30 13:26 | 48.83991 | 3.05705 | 12147 ft | 366 kts | 308° |
| 2026-04-30 13:27 | 48.87062 | 2.99527 | 12143 ft | 367 kts | 308° |
| 2026-04-30 13:28 | 48.91660 | 2.90251 | 12133 ft | 367 kts | 308° |
| 2026-04-30 13:28 | 48.93637 | 2.83252 | 12127 ft | 366 kts | 274° |
| 2026-04-30 13:28 | 48.93564 | 2.79370 | 11971 ft | 365 kts | 264° |
| 2026-04-30 13:29 | 48.93082 | 2.71764 | 11441 ft | 361 kts | 263° |
| 2026-04-30 13:29 | 48.92632 | 2.64194 | 10948 ft | 359 kts | 264° |
| 2026-04-30 13:30 | 48.92027 | 2.53180 | 10201 ft | 333 kts | 264° |
| 2026-04-30 13:31 | 48.91655 | 2.46392 | 9708 ft | 309 kts | 264° |
| 2026-04-30 13:31 | 48.91150 | 2.37252 | 8892 ft | 276 kts | 264° |
| 2026-04-30 13:32 | 48.90825 | 2.31496 | 8258 ft | 273 kts | 263° |
| 2026-04-30 13:32 | 48.90498 | 2.25759 | 7497 ft | 273 kts | 263° |
| 2026-04-30 13:33 | 48.90165 | 2.19993 | 6628 ft | 279 kts | 263° |
| 2026-04-30 13:33 | 48.89821 | 2.14054 | 5749 ft | 284 kts | 263° |
| 2026-04-30 13:34 | 48.89744 | 2.11084 | 5306 ft | 288 kts | 277° |
| 2026-04-30 13:34 | 48.93886 | 2.06178 | 4455 ft | 259 kts | 11° |
| 2026-04-30 13:35 | 48.95539 | 2.07003 | 4279 ft | 242 kts | 37° |
| 2026-04-30 13:35 | 48.97327 | 2.10800 | 3982 ft | 213 kts | 79° |
| 2026-04-30 13:36 | 48.98107 | 2.14823 | 4004 ft | 184 kts | 62° |
| 2026-04-30 13:36 | 48.98924 | 2.16279 | 4022 ft | 183 kts | 49° |
| 2026-04-30 13:36 | 49.00470 | 2.19231 | 4006 ft | 175 kts | 76° |
| 2026-04-30 13:37 | 49.00716 | 2.21039 | 4012 ft | 174 kts | 83° |
| 2026-04-30 13:37 | 49.01022 | 2.24646 | 3821 ft | 163 kts | 86° |
| 2026-04-30 13:38 | 49.01213 | 2.27826 | 3411 ft | 137 kts | 88° |
| 2026-04-30 13:38 | 49.01284 | 2.29192 | 3218 ft | 126 kts | 88° |
| 2026-04-30 13:38 | 49.01412 | 2.31804 | 2925 ft | 122 kts | 88° |
| 2026-04-30 13:39 | 49.01537 | 2.34355 | 2629 ft | 120 kts | 88° |
| 2026-04-30 13:39 | 49.01662 | 2.36879 | 2320 ft | 119 kts | 88° |
| 2026-04-30 13:40 | 49.01725 | 2.38146 | 2169 ft | 118 kts | 87° |
| 2026-04-30 13:40 | 49.01789 | 2.39384 | 2016 ft | 118 kts | 88° |
| 2026-04-30 13:40 | 49.01853 | 2.40631 | 1856 ft | 117 kts | 88° |
| 2026-04-30 13:40 | 49.01915 | 2.41848 | 1703 ft | 116 kts | 88° |
| 2026-04-30 13:41 | 49.01979 | 2.43079 | 1548 ft | 117 kts | 87° |
| 2026-04-30 13:41 | 49.02043 | 2.44312 | 1397 ft | 118 kts | 87° |
| 2026-04-30 13:41 | 49.02110 | 2.45573 | 1243 ft | 118 kts | 87° |
| 2026-04-30 13:41 | 49.02164 | 2.46817 | 1099 ft | 119 kts | 86° |
| 2026-04-30 13:42 | 49.02242 | 2.48096 | 950 ft | 120 kts | 85° |
| 2026-04-30 13:42 | 49.02329 | 2.49355 | 787 ft | 120 kts | 87° |
| 2026-04-30 13:42 | 49.02453 | 2.51915 | 496 ft | 122 kts | 87° |
| 2026-04-30 13:43 | 49.02518 | 2.53207 | 383 ft | 122 kts | 84° |
| 2026-04-30 13:43 | 49.02573 | 2.54297 | 377 ft | 68 kts | 85° |
| 2026-04-30 13:43 | 49.02595 | 2.54750 | 376 ft | 32 kts | 85° |
| 2026-04-30 13:43 | 49.02606 | 2.54988 | 375 ft | 17 kts | 86° |
| 2026-04-30 13:44 | 49.02602 | 2.55165 | 377 ft | 15 kts | 107° |
| 2026-04-30 13:44 | 49.02562 | 2.55315 | 378 ft | 14 kts | 116° |
| 2026-04-30 13:44 | 49.02533 | 2.55404 | 378 ft | 6 kts | 115° |
| 2026-04-30 13:44 | 49.02522 | 2.55438 | 378 ft | 0 kts | 114° |
| 2026-04-30 13:46 | 49.02522 | 2.55441 | 378 ft | 1 kts | 114° |
| 2026-04-30 13:46 | 49.02515 | 2.55460 | 378 ft | 3 kts | 114° |
| 2026-04-30 13:47 | 49.02504 | 2.55499 | 378 ft | 4 kts | 114° |
| 2026-04-30 13:47 | 49.02487 | 2.55547 | 378 ft | 5 kts | 118° |
| 2026-04-30 13:47 | 49.02466 | 2.55590 | 379 ft | 5 kts | 136° |
| 2026-04-30 13:47 | 49.02430 | 2.55610 | 378 ft | 6 kts | 173° |
| 2026-04-30 13:48 | 49.02377 | 2.55617 | 377 ft | 8 kts | 175° |
| 2026-04-30 13:48 | 49.02320 | 2.55624 | 377 ft | 7 kts | 174° |
| 2026-04-30 13:48 | 49.02260 | 2.55632 | 376 ft | 9 kts | 174° |
| 2026-04-30 13:48 | 49.02185 | 2.55641 | 375 ft | 11 kts | 177° |
| 2026-04-30 13:49 | 49.02103 | 2.55660 | 373 ft | 12 kts | 147° |
| 2026-04-30 13:49 | 49.02076 | 2.55773 | 373 ft | 10 kts | 85° |
| 2026-04-30 13:49 | 49.02081 | 2.55884 | 373 ft | 11 kts | 85° |
| 2026-04-30 13:49 | 49.02086 | 2.55965 | 373 ft | 7 kts | 84° |
| 2026-04-30 13:50 | 49.02091 | 2.56051 | 373 ft | 8 kts | 84° |
| 2026-04-30 13:50 | 49.02095 | 2.56224 | 375 ft | 8 kts | 99° |
| 2026-04-30 13:50 | 49.02058 | 2.56302 | 373 ft | 10 kts | 144° |
| 2026-04-30 13:51 | 49.01976 | 2.56327 | 371 ft | 13 kts | 172° |
| 2026-04-30 13:51 | 49.01933 | 2.56412 | 370 ft | 10 kts | 103° |
| 2026-04-30 13:51 | 49.01937 | 2.56521 | 370 ft | 11 kts | 85° |
| 2026-04-30 13:51 | 49.01947 | 2.56645 | 370 ft | 12 kts | 83° |
| 2026-04-30 13:52 | 49.01957 | 2.56783 | 368 ft | 14 kts | 83° |
| 2026-04-30 13:52 | 49.01964 | 2.56939 | 365 ft | 15 kts | 88° |
| 2026-04-30 13:52 | 49.01976 | 2.57070 | 364 ft | 9 kts | 25° |
| 2026-04-30 13:52 | 49.02034 | 2.57102 | 365 ft | 8 kts | 30° |
| 2026-04-30 13:53 | 49.02058 | 2.57184 | 365 ft | 10 kts | 81° |
| 2026-04-30 13:53 | 49.02069 | 2.57303 | 364 ft | 11 kts | 84° |
| 2026-04-30 13:53 | 49.02074 | 2.57431 | 364 ft | 12 kts | 86° |
| 2026-04-30 13:53 | 49.02078 | 2.57566 | 365 ft | 12 kts | 85° |
| 2026-04-30 13:54 | 49.02085 | 2.57706 | 365 ft | 13 kts | 86° |
| 2026-04-30 13:54 | 49.02069 | 2.57848 | 364 ft | 14 kts | 108° |
| 2026-04-30 13:54 | 49.02020 | 2.57986 | 362 ft | 16 kts | 128° |
| 2026-04-30 13:54 | 49.01924 | 2.58094 | 359 ft | 18 kts | 158° |
| 2026-04-30 13:55 | 49.01819 | 2.58124 | 355 ft | 16 kts | 175° |
| 2026-04-30 13:55 | 49.01694 | 2.58141 | 350 ft | 19 kts | 177° |
| 2026-04-30 13:55 | 49.01551 | 2.58159 | 345 ft | 22 kts | 175° |
| 2026-04-30 13:55 | 49.01424 | 2.58175 | 342 ft | 17 kts | 176° |
| 2026-04-30 13:56 | 49.01301 | 2.58190 | 342 ft | 18 kts | 175° |
| 2026-04-30 13:56 | 49.01175 | 2.58207 | 342 ft | 18 kts | 173° |
| 2026-04-30 13:56 | 49.01062 | 2.58220 | 341 ft | 16 kts | 174° |
| 2026-04-30 13:56 | 49.00968 | 2.58233 | 341 ft | 11 kts | 166° |
| 2026-04-30 13:57 | 49.00922 | 2.58331 | 339 ft | 13 kts | 92° |
| 2026-04-30 13:57 | 49.00927 | 2.58487 | 336 ft | 15 kts | 84° |
| 2026-04-30 13:57 | 49.00937 | 2.58667 | 333 ft | 18 kts | 86° |
| 2026-04-30 13:57 | 49.00946 | 2.58860 | 333 ft | 17 kts | 85° |
| 2026-04-30 13:58 | 49.00971 | 2.59031 | 336 ft | 16 kts | 72° |
| 2026-04-30 13:58 | 49.00995 | 2.59386 | 332 ft | 18 kts | 88° |
| 2026-04-30 13:58 | 49.00980 | 2.59514 | 330 ft | 9 kts | 142° |
| 2026-04-30 13:59 | 49.00919 | 2.59547 | 330 ft | 9 kts | 175° |
| 2026-04-30 13:59 | 49.00858 | 2.59551 | 331 ft | 8 kts | 178° |
| 2026-04-30 13:59 | 49.00801 | 2.59553 | 332 ft | 7 kts | 178° |
| 2026-04-30 13:59 | 49.00749 | 2.59558 | 333 ft | 7 kts | 175° |
| 2026-04-30 14:00 | 49.00698 | 2.59565 | 334 ft | 8 kts | 174° |
| 2026-04-30 14:00 | 49.00555 | 2.59583 | 335 ft | 13 kts | 175° |
| 2026-04-30 14:00 | 49.00456 | 2.59595 | 334 ft | 15 kts | 174° |
| 2026-04-30 14:01 | 49.00349 | 2.59608 | 333 ft | 14 kts | 175° |
| 2026-04-30 14:01 | 49.00277 | 2.59644 | 332 ft | 10 kts | 107° |
| 2026-04-30 14:01 | 49.00279 | 2.59765 | 332 ft | 11 kts | 85° |
| 2026-04-30 14:01 | 49.00286 | 2.59892 | 332 ft | 11 kts | 85° |
| 2026-04-30 14:02 | 49.00323 | 2.59961 | 333 ft | 8 kts | 82° |
| 2026-04-30 14:02 | 49.00333 | 2.60048 | 333 ft | 8 kts | 82° |
| 2026-04-30 14:02 | 49.00340 | 2.60146 | 333 ft | 9 kts | 85° |
| 2026-04-30 14:02 | 49.00384 | 2.60201 | 333 ft | 9 kts | 356° |
| 2026-04-30 14:03 | 49.00414 | 2.60174 | 333 ft | 5 kts | 273° |
| 2026-04-30 14:03 | 49.00412 | 2.60127 | 333 ft | 3 kts | 267° |
| 2026-04-30 14:03 | 49.00411 | 2.60120 | 333 ft | 0 kts | 265° |